Time;durP1;ratioP1;P1;durP2;ratioP2;P2;SDS_P1;SDS_P2;PMS_P1;PMS_P2;Temp;Humidity;BMP_temperature;BMP_pressure;BME280_temperature;BME280_humidity;BME280_pressure;Samples;Min_cycle;Max_cycle;Signal;HPM_P1;HPM_P2
2022/09/12 00:01:12;;;;;;;16.17;14.48;;;15.70;99.90;;;;;;5041329;28;20051;-83
2022/09/12 00:03:38;;;;;;;17.20;13.43;;;15.70;99.90;;;;;;5056661;28;20495;-84
2022/09/12 00:06:14;;;;;;;15.80;13.98;;;15.70;99.90;;;;;;5051193;28;20044;-84
2022/09/12 00:08:40;;;;;;;16.08;13.18;;;15.70;99.90;;;;;;5055218;28;20041;-82
2022/09/12 00:11:10;;;;;;;15.15;13.35;;;15.60;99.90;;;;;;5038368;28;20036;-83
2022/09/12 00:13:37;;;;;;;16.92;14.07;;;15.60;99.90;;;;;;5042354;28;20437;-83
2022/09/12 00:16:04;;;;;;;15.15;13.65;;;15.60;99.90;;;;;;5056404;28;20036;-83
2022/09/12 00:18:30;;;;;;;16.20;14.50;;;15.70;99.90;;;;;;5062013;28;20129;-83
2022/09/12 00:21:01;;;;;;;18.25;16.27;;;15.60;99.90;;;;;;5030652;28;20121;-82
2022/09/12 00:23:26;;;;;;;15.23;13.57;;;15.60;99.90;;;;;;5030567;28;20500;-82
2022/09/12 00:25:52;;;;;;;15.98;14.07;;;15.50;99.90;;;;;;5046537;28;20048;-83
2022/09/12 00:28:18;;;;;;;15.07;12.90;;;15.50;99.90;;;;;;5048447;28;20501;-83
2022/09/12 00:30:46;;;;;;;16.67;13.10;;;15.20;99.90;;;;;;5040633;28;20035;-83
2022/09/12 00:33:14;;;;;;;14.23;12.73;;;15.40;99.90;;;;;;5041717;28;20068;-83
2022/09/12 00:36:03;;;;;;;15.02;13.20;;;15.40;99.90;;;;;;5035508;28;20036;-84
2022/09/12 00:38:28;;;;;;;15.27;13.68;;;15.40;99.90;;;;;;5045988;28;20036;-83
2022/09/12 00:40:54;;;;;;;14.73;12.48;;;15.40;99.90;;;;;;5015129;28;20039;-82
2022/09/12 00:43:29;;;;;;;14.90;12.60;;;15.30;99.90;;;;;;5028679;28;20074;-83
2022/09/12 00:45:56;;;;;;;16.77;13.50;;;15.30;99.90;;;;;;5045126;28;20044;-83
2022/09/12 00:48:30;;;;;;;14.65;13.07;;;15.30;99.90;;;;;;5030756;28;20041;-83
2022/09/12 00:50:56;;;;;;;17.40;12.93;;;15.30;99.90;;;;;;5055960;28;20046;-83
2022/09/12 00:53:21;;;;;;;14.25;12.20;;;15.30;99.90;;;;;;5037186;28;20029;-83
2022/09/12 00:55:50;;;;;;;14.13;12.70;;;15.30;99.90;;;;;;5039891;28;20512;-83
2022/09/12 00:58:29;;;;;;;14.10;12.70;;;15.20;99.90;;;;;;5034545;28;20078;-83
2022/09/12 01:00:56;;;;;;;14.60;12.98;;;15.20;99.90;;;;;;5035204;28;20032;-83
2022/09/12 01:03:23;;;;;;;19.63;16.60;;;15.20;99.90;;;;;;5037001;28;20110;-82
2022/09/12 01:06:11;;;;;;;20.67;16.38;;;15.20;99.90;;;;;;5015069;28;20115;-83
2022/09/12 01:08:38;;;;;;;19.45;16.90;;;15.20;99.90;;;;;;5041415;28;20044;-83
2022/09/12 01:11:05;;;;;;;20.65;16.45;;;15.10;99.90;;;;;;5019850;28;20121;-83
2022/09/12 01:13:33;;;;;;;20.92;18.65;;;15.10;99.90;;;;;;5052662;28;20057;-83
2022/09/12 01:16:01;;;;;;;23.13;18.42;;;15.10;99.90;;;;;;5033914;28;20040;-83
2022/09/12 01:18:27;;;;;;;22.33;19.90;;;15.10;99.90;;;;;;5033987;28;20047;-83
2022/09/12 01:21:10;;;;;;;24.30;21.50;;;15.00;99.90;;;;;;5049271;28;20044;-82
2022/09/12 01:23:51;;;;;;;30.15;22.73;;;15.10;99.90;;;;;;5068745;28;20112;-83
2022/09/12 01:26:53;;;;;;;25.00;22.02;;;15.10;99.90;;;;;;5039039;28;20082;-83
2022/09/12 01:29:39;;;;;;;25.67;21.77;;;15.00;99.90;;;;;;5030997;28;20040;-83
2022/09/12 01:32:19;;;;;;;26.98;22.38;;;14.90;99.90;;;;;;5055249;28;20439;-83
2022/09/12 01:34:48;;;;;;;27.67;23.17;;;15.00;99.90;;;;;;5055359;28;20046;-84
2022/09/12 01:37:22;;;;;;;27.48;23.30;;;15.00;99.90;;;;;;5050260;28;20033;-83
2022/09/12 01:40:07;;;;;;;27.95;23.52;;;14.90;99.90;;;;;;5040937;28;20036;-83
2022/09/12 01:42:53;;;;;;;26.95;23.33;;;14.90;99.90;;;;;;5042108;28;20421;-85
2022/09/12 01:45:42;;;;;;;29.27;23.98;;;14.90;99.90;;;;;;5046103;28;20562;-84
2022/09/12 01:48:11;;;;;;;28.90;24.30;;;14.90;99.90;;;;;;5045693;28;20032;-83
2022/09/12 01:50:55;;;;;;;26.05;22.88;;;14.90;99.90;;;;;;5063103;28;20047;-84
2022/09/12 01:53:34;;;;;;;27.30;22.23;;;14.90;99.90;;;;;;5041287;28;20037;-84
2022/09/12 01:56:10;;;;;;;25.92;22.40;;;14.80;99.90;;;;;;5063456;28;20492;-84
2022/09/12 01:58:56;;;;;;;26.63;22.75;;;14.80;99.90;;;;;;5034222;28;20509;-84
2022/09/12 02:01:32;;;;;;;26.88;22.98;;;14.80;99.90;;;;;;5056807;28;20531;-83
2022/09/12 02:04:17;;;;;;;26.58;23.52;;;14.80;99.90;;;;;;5039137;28;20431;-84
2022/09/12 02:07:25;;;;;;;28.17;21.88;;;14.80;99.90;;;;;;5066330;28;20393;-83
2022/09/12 02:10:01;;;;;;;26.42;22.00;;;14.70;99.90;;;;;;5013223;28;20613;-83
2022/09/12 02:12:33;;;;;;;22.98;19.98;;;14.70;99.90;;;;;;5038948;28;20052;-83
2022/09/12 02:15:06;;;;;;;26.17;22.73;;;14.70;99.90;;;;;;5047069;28;20036;-83
2022/09/12 02:17:37;;;;;;;27.33;23.52;;;14.70;99.90;;;;;;5040240;28;20044;-83
2022/09/12 02:20:32;;;;;;;28.23;23.55;;;14.70;99.90;;;;;;5047466;28;20048;-83
2022/09/12 02:22:59;;;;;;;28.33;23.60;;;14.70;99.90;;;;;;5045515;28;20045;-83
2022/09/12 02:25:28;;;;;;;27.80;22.10;;;14.70;99.90;;;;;;5050538;28;20040;-84
2022/09/12 02:28:00;;;;;;;29.33;23.38;;;14.70;99.90;;;;;;5040775;28;20035;-84
2022/09/12 02:30:36;;;;;;;27.63;22.83;;;14.70;99.90;;;;;;5053857;28;20504;-83
2022/09/12 02:33:07;;;;;;;27.40;22.38;;;14.60;99.90;;;;;;5040436;28;20076;-83
2022/09/12 02:35:45;;;;;;;31.90;24.08;;;14.70;99.90;;;;;;5054299;28;20044;-83
2022/09/12 02:38:24;;;;;;;29.63;22.95;;;14.70;99.90;;;;;;5051916;28;20052;-83
2022/09/12 02:40:50;;;;;;;27.45;22.95;;;14.60;99.90;;;;;;5056631;28;20095;-83
2022/09/12 02:43:16;;;;;;;30.08;23.20;;;14.60;99.90;;;;;;5023604;28;20063;-83
2022/09/12 02:45:42;;;;;;;26.45;21.83;;;14.60;99.90;;;;;;5027269;28;20526;-83
2022/09/12 02:48:25;;;;;;;29.13;22.95;;;14.10;99.90;;;;;;5021270;28;20025;-83
2022/09/12 02:50:52;;;;;;;29.05;21.80;;;14.50;99.90;;;;;;5043634;28;20057;-83
2022/09/12 02:53:18;;;;;;;24.17;20.90;;;14.50;99.90;;;;;;5014988;28;20071;-83
2022/09/12 02:55:43;;;;;;;28.05;22.50;;;14.50;99.90;;;;;;5037137;28;20033;-83
2022/09/12 02:58:15;;;;;;;27.63;22.75;;;14.50;99.90;;;;;;5037954;28;20068;-83
2022/09/12 03:00:50;;;;;;;27.63;22.48;;;14.50;99.90;;;;;;5053478;28;20054;-84
2022/09/12 03:03:41;;;;;;;29.90;22.63;;;14.50;99.90;;;;;;5048939;28;20037;-84
2022/09/12 03:06:32;;;;;;;26.60;22.40;;;14.40;99.90;;;;;;5053220;28;20040;-83
2022/09/12 03:09:17;;;;;;;27.58;22.48;;;14.40;99.90;;;;;;5042091;28;20044;-83
2022/09/12 03:11:48;;;;;;;27.52;22.40;;;14.40;99.90;;;;;;5031955;28;20044;-83
2022/09/12 03:14:26;;;;;;;27.58;22.98;;;14.40;99.90;;;;;;5038357;28;20068;-83
2022/09/12 03:17:30;;;;;;;25.65;22.02;;;14.30;99.90;;;;;;5075600;28;20138;-83
2022/09/12 03:20:24;;;;;;;30.25;23.98;;;14.30;99.90;;;;;;5053379;28;20086;-83
2022/09/12 03:22:58;;;;;;;27.70;22.17;;;14.30;99.90;;;;;;5058802;28;20084;-84
2022/09/12 03:25:31;;;;;;;30.67;24.63;;;14.20;99.90;;;;;;5059826;28;20033;-82
2022/09/12 03:28:07;;;;;;;29.63;23.77;;;14.20;99.90;;;;;;5048396;28;20464;-83
2022/09/12 03:30:47;;;;;;;29.15;23.15;;;14.20;99.90;;;;;;5045710;28;20037;-83
2022/09/12 03:33:16;;;;;;;31.00;23.50;;;14.20;99.90;;;;;;5032881;28;20075;-83
2022/09/12 03:35:42;;;;;;;29.67;23.17;;;14.20;99.90;;;;;;5057525;28;20037;-82
2022/09/12 03:38:09;;;;;;;27.67;23.13;;;14.20;99.90;;;;;;5057295;28;20036;-83
2022/09/12 03:40:36;;;;;;;29.27;23.17;;;14.10;99.90;;;;;;5072728;28;20048;-83
2022/09/12 03:43:03;;;;;;;29.38;23.33;;;14.10;99.90;;;;;;5039644;28;20044;-84
2022/09/12 03:45:29;;;;;;;27.90;21.90;;;14.10;99.90;;;;;;5057417;28;20468;-82
2022/09/12 03:47:55;;;;;;;26.80;21.85;;;14.00;99.90;;;;;;5039021;28;20564;-83
2022/09/12 03:50:21;;;;;;;27.65;21.52;;;14.00;99.90;;;;;;5033991;28;20052;-83
2022/09/12 03:52:47;;;;;;;28.20;21.70;;;14.00;99.90;;;;;;5055353;28;20040;-82
2022/09/12 03:55:12;;;;;;;28.88;22.48;;;14.00;99.90;;;;;;5052766;28;20412;-83
2022/09/12 03:57:38;;;;;;;27.42;22.08;;;14.00;99.90;;;;;;5041677;28;20036;-83
2022/09/12 04:00:06;;;;;;;27.48;23.23;;;14.00;99.90;;;;;;5038531;28;20073;-83
2022/09/12 04:02:32;;;;;;;27.80;22.70;;;14.00;99.90;;;;;;5053534;28;20040;-83
2022/09/12 04:04:58;;;;;;;29.13;23.48;;;14.00;99.90;;;;;;5020743;28;20129;-83
2022/09/12 04:07:23;;;;;;;28.05;22.35;;;14.00;99.90;;;;;;5040986;28;20075;-83
2022/09/12 04:09:49;;;;;;;29.92;22.25;;;14.00;99.90;;;;;;5048225;28;20037;-83
2022/09/12 04:12:15;;;;;;;28.27;22.40;;;13.90;99.90;;;;;;5029292;28;20497;-83
2022/09/12 04:14:41;;;;;;;26.52;21.98;;;13.90;99.90;;;;;;5035667;28;20155;-83
2022/09/12 04:17:07;;;;;;;26.48;22.17;;;13.90;99.90;;;;;;5020430;28;20471;-83
2022/09/12 04:19:33;;;;;;;27.17;22.05;;;13.90;99.90;;;;;;5033684;28;20070;-83
2022/09/12 04:21:59;;;;;;;31.42;21.92;;;13.90;99.90;;;;;;5057290;28;20056;-83
2022/09/12 04:24:24;;;;;;;27.20;21.20;;;13.90;99.90;;;;;;5033247;28;20119;-83
2022/09/12 04:26:50;;;;;;;27.38;21.50;;;13.90;99.90;;;;;;5029077;28;20044;-83
2022/09/12 04:29:16;;;;;;;26.50;20.70;;;13.80;99.90;;;;;;5021609;28;20048;-83
2022/09/12 04:31:42;;;;;;;25.02;20.92;;;13.80;99.90;;;;;;5024840;28;20040;-83
2022/09/12 04:34:08;;;;;;;26.20;21.17;;;13.80;99.90;;;;;;5038790;28;20036;-83
2022/09/12 04:36:33;;;;;;;32.65;22.65;;;13.80;99.90;;;;;;5009926;28;20048;-83
2022/09/12 04:39:00;;;;;;;26.77;21.25;;;13.80;99.90;;;;;;4998787;28;20037;-83
2022/09/12 04:41:29;;;;;;;29.20;21.63;;;13.80;99.90;;;;;;5040360;28;20046;-83
2022/09/12 04:44:00;;;;;;;27.98;22.13;;;13.80;99.90;;;;;;5038755;28;20067;-83
2022/09/12 04:46:28;;;;;;;25.77;21.55;;;13.80;99.90;;;;;;5061685;28;20044;-83
2022/09/12 04:48:54;;;;;;;24.77;20.73;;;13.70;99.90;;;;;;5021883;28;20040;-82
2022/09/12 04:51:26;;;;;;;25.88;20.95;;;13.80;99.90;;;;;;5035868;28;20127;-82
2022/09/12 04:53:55;;;;;;;25.90;21.40;;;13.80;99.90;;;;;;5074577;28;20119;-82
2022/09/12 04:56:21;;;;;;;27.38;21.88;;;13.70;99.90;;;;;;5065269;28;20083;-83
2022/09/12 04:58:47;;;;;;;29.70;24.08;;;13.70;99.90;;;;;;5048803;28;20061;-82
2022/09/12 05:01:16;;;;;;;30.52;24.20;;;13.70;99.90;;;;;;5036264;28;20074;-83
2022/09/12 05:03:44;;;;;;;29.52;22.52;;;13.80;99.90;;;;;;5056442;28;20037;-82
2022/09/12 05:06:12;;;;;;;33.03;23.75;;;13.80;99.90;;;;;;5034410;28;20051;-82
2022/09/12 05:08:38;;;;;;;32.45;23.98;;;13.80;99.90;;;;;;5053260;28;20037;-80
2022/09/12 05:11:06;;;;;;;31.05;24.52;;;13.80;99.90;;;;;;5051261;28;20060;-80
2022/09/12 05:13:33;;;;;;;33.85;25.23;;;13.80;99.90;;;;;;5038345;28;20040;-81
2022/09/12 05:16:00;;;;;;;32.88;24.35;;;13.80;99.90;;;;;;5053918;28;20115;-82
2022/09/12 05:18:27;;;;;;;30.10;24.00;;;13.80;99.90;;;;;;5024381;28;20047;-82
2022/09/12 05:20:53;;;;;;;34.33;25.40;;;13.80;99.90;;;;;;5056279;28;20109;-83
2022/09/12 05:23:20;;;;;;;33.20;24.85;;;13.80;99.90;;;;;;5023211;28;20400;-83
2022/09/12 05:25:53;;;;;;;34.55;25.52;;;13.90;99.90;;;;;;5035425;28;20423;-81
2022/09/12 05:28:20;;;;;;;35.75;26.23;;;13.90;99.90;;;;;;5035932;28;20036;-82
2022/09/12 05:30:46;;;;;;;36.67;25.65;;;13.90;99.90;;;;;;5041240;28;20120;-82
2022/09/12 05:33:12;;;;;;;33.08;24.45;;;13.90;99.90;;;;;;5053578;28;20519;-82
2022/09/12 05:35:39;;;;;;;35.33;25.27;;;13.90;99.90;;;;;;5019027;28;20044;-82
2022/09/12 05:38:08;;;;;;;32.83;25.33;;;13.90;99.90;;;;;;5049243;28;20075;-82
2022/09/12 05:40:34;;;;;;;34.65;26.02;;;13.90;99.90;;;;;;5038576;28;20040;-82
2022/09/12 05:43:00;;;;;;;33.33;25.38;;;13.90;99.90;;;;;;5031566;28;20068;-82
2022/09/12 05:45:26;;;;;;;36.58;25.25;;;14.00;99.90;;;;;;5054971;28;20043;-81
2022/09/12 05:47:55;;;;;;;37.83;26.60;;;14.00;99.90;;;;;;5043267;28;20043;-82
2022/09/12 05:50:21;;;;;;;35.28;25.48;;;14.00;99.90;;;;;;5053998;28;20033;-83
2022/09/12 05:52:46;;;;;;;37.10;25.77;;;14.00;99.90;;;;;;5025939;28;20066;-82
2022/09/12 05:55:13;;;;;;;41.70;26.42;;;14.00;99.90;;;;;;5043897;28;20115;-82
2022/09/12 05:57:38;;;;;;;36.33;25.38;;;14.10;99.90;;;;;;5034772;28;20079;-83
2022/09/12 06:00:06;;;;;;;38.53;28.23;;;14.10;99.90;;;;;;5055084;28;20045;-82
2022/09/12 06:02:33;;;;;;;39.53;27.33;;;14.20;99.90;;;;;;5038469;28;20111;-81
2022/09/12 06:04:59;;;;;;;42.05;28.27;;;14.10;99.90;;;;;;5034211;28;20571;-81
2022/09/12 06:07:25;;;;;;;44.85;29.20;;;14.20;99.90;;;;;;5024321;28;20431;-82
2022/09/12 06:09:50;;;;;;;43.65;29.80;;;14.20;99.90;;;;;;5057730;28;20090;-81
2022/09/12 06:12:16;;;;;;;41.90;28.08;;;14.30;99.90;;;;;;5041165;28;20042;-81
2022/09/12 06:14:42;;;;;;;43.60;29.08;;;14.30;99.90;;;;;;5023494;28;20508;-81
2022/09/12 06:17:08;;;;;;;42.67;29.20;;;14.30;99.90;;;;;;5034091;28;20114;-81
2022/09/12 06:19:33;;;;;;;43.72;28.83;;;14.30;99.90;;;;;;5052000;28;20072;-82
2022/09/12 06:22:00;;;;;;;43.63;28.50;;;14.30;99.90;;;;;;5051995;28;20045;-82
2022/09/12 06:24:26;;;;;;;48.63;30.10;;;14.40;99.90;;;;;;5038998;28;20093;-82
2022/09/12 06:26:52;;;;;;;44.25;29.15;;;14.40;99.90;;;;;;5052509;28;20115;-82
2022/09/12 06:29:18;;;;;;;44.00;29.90;;;14.40;99.90;;;;;;5029106;28;20037;-82
2022/09/12 06:31:44;;;;;;;44.15;29.75;;;14.50;99.90;;;;;;5020167;28;20045;-82
2022/09/12 06:34:13;;;;;;;48.92;30.38;;;14.50;99.90;;;;;;5027554;28;20082;-82
2022/09/12 06:36:44;;;;;;;47.33;30.52;;;14.50;99.90;;;;;;5033494;28;20071;-82
2022/09/12 06:39:19;;;;;;;54.63;31.27;;;14.60;99.90;;;;;;5053091;28;20049;-82
2022/09/12 06:41:47;;;;;;;51.90;32.45;;;14.60;99.90;;;;;;5029417;28;20553;-82
2022/09/12 06:44:20;;;;;;;49.03;32.20;;;14.60;99.90;;;;;;5048203;28;20041;-82
2022/09/12 06:46:46;;;;;;;49.72;33.05;;;14.60;99.90;;;;;;5038665;28;20149;-82
2022/09/12 06:49:13;;;;;;;50.60;31.92;;;14.60;99.90;;;;;;5040426;28;20361;-82
2022/09/12 06:51:40;;;;;;;50.03;32.63;;;14.60;99.90;;;;;;5055515;28;20040;-81
2022/09/12 06:54:06;;;;;;;50.10;32.50;;;14.60;99.90;;;;;;5032185;28;20423;-82
2022/09/12 06:56:33;;;;;;;56.60;35.13;;;14.70;99.90;;;;;;5044327;28;20033;-82
2022/09/12 06:58:58;;;;;;;55.25;33.05;;;14.70;99.90;;;;;;5024041;28;20399;-82
2022/09/12 07:01:24;;;;;;;54.38;34.40;;;14.70;99.90;;;;;;5048937;28;20100;-82
2022/09/12 07:03:53;;;;;;;55.80;34.05;;;14.70;99.90;;;;;;5054679;28;20106;-82
2022/09/12 07:06:21;;;;;;;56.75;34.42;;;14.80;99.90;;;;;;5055702;28;20044;-82
2022/09/12 07:08:47;;;;;;;53.22;34.13;;;14.80;99.90;;;;;;5040409;28;20045;-82
2022/09/12 07:11:22;;;;;;;56.80;36.42;;;14.90;99.90;;;;;;5055688;28;20393;-82
2022/09/12 07:13:49;;;;;;;54.72;33.45;;;14.90;99.90;;;;;;5040835;28;20079;-82
2022/09/12 07:16:16;;;;;;;54.38;35.13;;;14.90;99.90;;;;;;5043935;28;20028;-82
2022/09/12 07:18:42;;;;;;;53.22;35.45;;;15.00;99.90;;;;;;5036793;28;20056;-82
2022/09/12 07:21:13;;;;;;;53.70;35.20;;;15.00;99.90;;;;;;5057013;28;20048;-82
2022/09/12 07:23:40;;;;;;;55.88;36.63;;;15.00;99.90;;;;;;5041018;28;20119;-81
2022/09/12 07:26:08;;;;;;;52.05;36.58;;;15.00;99.90;;;;;;5071239;28;20570;-82
2022/09/12 07:28:35;;;;;;;55.28;35.88;;;15.10;99.90;;;;;;5043881;28;20059;-83
2022/09/12 07:31:15;;;;;;;51.40;34.97;;;15.10;99.90;;;;;;5058904;28;20049;-81
2022/09/12 07:33:42;;;;;;;55.85;35.50;;;15.10;99.90;;;;;;5044731;28;20048;-82
2022/09/12 07:36:12;;;;;;;54.60;34.92;;;15.20;99.90;;;;;;5058824;28;20060;-82
2022/09/12 07:38:38;;;;;;;52.85;35.53;;;15.20;99.90;;;;;;5056244;28;20039;-81
2022/09/12 07:41:17;;;;;;;53.40;35.05;;;15.20;99.90;;;;;;5052056;28;20041;-82
2022/09/12 07:43:43;;;;;;;50.40;34.58;;;15.30;99.90;;;;;;5039327;28;20105;-82
2022/09/12 07:46:10;;;;;;;59.45;37.22;;;15.30;99.90;;;;;;5020916;28;20478;-81
2022/09/12 07:48:37;;;;;;;56.97;36.95;;;15.40;99.90;;;;;;5022489;28;20120;-82
2022/09/12 07:51:06;;;;;;;64.82;39.45;;;15.40;99.90;;;;;;5037369;28;20074;-82
2022/09/12 07:53:38;;;;;;;57.95;37.33;;;15.50;99.90;;;;;;5053015;28;20044;-81
2022/09/12 07:56:05;;;;;;;56.85;36.17;;;15.50;99.90;;;;;;5059194;28;20037;-82
2022/09/12 07:58:31;;;;;;;58.38;38.08;;;15.60;99.90;;;;;;5058782;28;20444;-82
2022/09/12 08:01:23;;;;;;;61.70;38.95;;;15.70;99.90;;;;;;5052888;28;20111;-81
2022/09/12 08:03:53;;;;;;;59.38;38.55;;;15.80;99.90;;;;;;5051761;28;20076;-81
2022/09/12 08:06:22;;;;;;;56.67;37.33;;;15.80;99.90;;;;;;5057551;28;20033;-82
2022/09/12 08:08:49;;;;;;;58.97;37.65;;;15.90;99.90;;;;;;5047299;28;20472;-82
2022/09/12 08:11:17;;;;;;;61.88;38.80;;;16.00;99.90;;;;;;5062816;28;20507;-82
2022/09/12 08:13:44;;;;;;;60.60;37.67;;;16.20;99.90;;;;;;5042788;28;20032;-82
2022/09/12 08:16:16;;;;;;;59.45;37.70;;;16.30;99.90;;;;;;5060733;28;20365;-82
2022/09/12 08:18:42;;;;;;;61.85;38.83;;;16.30;99.90;;;;;;5049613;28;20037;-82
2022/09/12 08:21:14;;;;;;;62.55;38.85;;;16.60;99.90;;;;;;5041345;28;20040;-81
2022/09/12 08:23:41;;;;;;;60.25;37.78;;;16.60;99.90;;;;;;5054201;28;20037;-82
2022/09/12 08:26:07;;;;;;;59.35;37.67;;;16.40;99.90;;;;;;5039804;28;20452;-82
2022/09/12 08:28:35;;;;;;;56.42;37.90;;;16.70;99.90;;;;;;5038870;28;20039;-82
2022/09/12 08:31:11;;;;;;;56.83;35.83;;;16.80;99.90;;;;;;5056539;28;20045;-82
2022/09/12 08:33:37;;;;;;;57.42;35.47;;;16.90;99.90;;;;;;5051539;28;20087;-82
2022/09/12 08:36:10;;;;;;;54.75;35.47;;;16.90;99.90;;;;;;5036769;28;20036;-82
2022/09/12 08:38:37;;;;;;;56.92;37.30;;;17.00;99.90;;;;;;5053706;28;20116;-82
2022/09/12 08:41:09;;;;;;;53.78;36.58;;;17.10;99.90;;;;;;5055143;28;20040;-82
2022/09/12 08:44:10;;;;;;;51.38;34.80;;;17.20;99.90;;;;;;5032432;28;20036;-82
2022/09/12 08:47:07;;;;;;;58.28;37.47;;;17.30;99.90;;;;;;5020237;28;20052;-83
2022/09/12 08:49:34;;;;;;;;;;;17.40;99.90;;;;;;5046955;28;20094;-83
2022/09/12 08:52:11;;;;;;;47.70;34.25;;;17.50;99.90;;;;;;5055173;28;19924;-82
2022/09/12 08:54:38;;;;;;;54.83;36.63;;;17.60;99.90;;;;;;5043757;28;20045;-82
2022/09/12 08:57:08;;;;;;;55.70;36.67;;;17.60;99.90;;;;;;5040049;28;20219;-82
2022/09/12 08:59:39;;;;;;;56.17;36.50;;;17.70;99.90;;;;;;5054124;28;20060;-82
2022/09/12 09:02:30;;;;;;;49.17;34.53;;;17.80;99.90;;;;;;5041588;28;20041;-82
2022/09/12 09:05:23;;;;;;;48.50;32.90;;;17.90;99.90;;;;;;5041467;28;20401;-83
2022/09/12 09:08:01;;;;;;;51.17;34.60;;;17.90;99.90;;;;;;5052307;28;20132;-82
2022/09/12 09:10:31;;;;;;;48.50;34.53;;;18.00;99.90;;;;;;5056992;28;20079;-82
2022/09/12 09:16:14;;;;;;;;;;;18.10;99.90;;;;;;5051142;28;20040;-82
2022/09/12 09:18:43;;;;;;;48.13;33.13;;;18.20;99.90;;;;;;5056716;28;20332;-82
2022/09/12 09:21:43;;;;;;;49.45;35.65;;;18.30;99.90;;;;;;5070575;28;20466;-83
2022/09/12 09:24:15;;;;;;;49.15;34.38;;;18.40;99.90;;;;;;5054735;28;20045;-82
2022/09/12 09:26:58;;;;;;;49.83;32.80;;;18.50;99.90;;;;;;5047832;28;20032;-82
2022/09/12 09:29:31;;;;;;;54.60;35.55;;;18.50;99.90;;;;;;5059401;28;20045;-82
2022/09/12 09:32:00;;;;;;;47.65;33.17;;;18.60;99.90;;;;;;5040605;28;20075;-82
2022/09/12 09:34:30;;;;;;;48.40;34.50;;;18.70;99.90;;;;;;5027199;28;20036;-82
2022/09/12 09:37:02;;;;;;;46.53;32.47;;;18.80;99.90;;;;;;5054063;28;20063;-83
2022/09/12 09:39:42;;;;;;;45.70;30.27;;;18.80;99.90;;;;;;5034997;28;20067;-82
2022/09/12 09:42:53;;;;;;;46.67;32.58;;;18.90;99.90;;;;;;5042388;28;20094;-82
2022/09/12 09:45:28;;;;;;;44.55;32.00;;;18.90;99.90;;;;;;4942090;28;20061;-83
2022/09/12 09:48:00;;;;;;;43.72;31.00;;;18.90;99.90;;;;;;4959556;28;20073;-82
2022/09/12 09:50:26;;;;;;;45.63;31.45;;;18.90;99.90;;;;;;5012507;28;20036;-82
2022/09/12 09:52:55;;;;;;;48.45;32.90;;;19.00;99.90;;;;;;5040852;28;20087;-82
2022/09/12 09:55:26;;;;;;;42.10;31.77;;;19.10;99.90;;;;;;5051494;28;20037;-82
2022/09/12 09:57:52;;;;;;;45.65;32.38;;;19.20;99.90;;;;;;5039948;28;20044;-82
2022/09/12 10:00:27;;;;;;;48.25;32.47;;;19.20;99.90;;;;;;5038689;28;20040;-83
2022/09/12 10:03:08;;;;;;;44.78;31.05;;;19.20;99.90;;;;;;5050833;28;20049;-83
2022/09/12 10:05:52;;;;;;;42.28;29.80;;;19.20;99.90;;;;;;5054615;28;20040;-82
2022/09/12 10:08:26;;;;;;;44.35;32.15;;;19.30;99.90;;;;;;5033211;28;20079;-82
2022/09/12 10:11:06;;;;;;;44.25;30.17;;;19.40;99.90;;;;;;5069413;28;20323;-82
2022/09/12 10:13:38;;;;;;;44.05;31.48;;;19.40;99.90;;;;;;5050566;28;20044;-83
2022/09/12 10:16:26;;;;;;;42.25;30.52;;;19.50;99.90;;;;;;5053196;28;20037;-83
2022/09/12 10:18:54;;;;;;;44.13;31.20;;;19.50;99.90;;;;;;5039343;28;20115;-83
2022/09/12 10:21:34;;;;;;;42.85;30.80;;;19.50;99.90;;;;;;5054349;28;20048;-83
2022/09/12 10:24:23;;;;;;;44.13;31.25;;;19.50;99.90;;;;;;5034840;28;20048;-82
2022/09/12 10:27:05;;;;;;;44.15;30.15;;;19.50;99.90;;;;;;5049213;28;20473;-84
2022/09/12 10:29:35;;;;;;;41.08;28.88;;;19.60;99.90;;;;;;5054531;28;20047;-85
2022/09/12 10:32:07;;;;;;;41.88;28.55;;;19.70;99.90;;;;;;5034800;28;20114;-84
2022/09/12 10:34:41;;;;;;;38.78;27.35;;;19.70;99.90;;;;;;5061919;28;20045;-85
2022/09/12 10:37:14;;;;;;;41.67;28.80;;;19.80;99.90;;;;;;5053793;28;20048;-83
2022/09/12 10:39:47;;;;;;;37.58;27.33;;;19.90;99.90;;;;;;5036474;28;20404;-83
2022/09/12 10:42:14;;;;;;;33.70;24.92;;;19.90;99.90;;;;;;5051446;28;20048;-83
2022/09/12 10:44:53;;;;;;;30.00;22.90;;;19.90;99.90;;;;;;5030036;28;20119;-84
2022/09/12 10:47:27;;;;;;;34.38;22.35;;;19.90;99.90;;;;;;5054381;28;20044;-84
2022/09/12 10:49:57;;;;;;;29.20;21.85;;;20.00;99.90;;;;;;5037861;28;20098;-85
2022/09/12 10:52:23;;;;;;;33.72;23.52;;;20.00;99.90;;;;;;5032183;28;20036;-83
2022/09/12 10:54:50;;;;;;;38.30;23.23;;;20.00;99.90;;;;;;5052913;28;20036;-84
2022/09/12 10:57:29;;;;;;;29.38;21.17;;;20.10;99.90;;;;;;5048671;28;20076;-83
2022/09/12 11:00:10;;;;;;;38.85;20.75;;;20.10;99.90;;;;;;5049791;28;20075;-84
2022/09/12 11:02:42;;;;;;;31.65;22.52;;;20.20;99.90;;;;;;5052782;28;20048;-84
2022/09/12 11:05:19;;;;;;;26.08;20.23;;;20.20;99.90;;;;;;5056158;28;20455;-84
2022/09/12 11:07:48;;;;;;;27.85;21.05;;;20.30;99.90;;;;;;5052180;28;20043;-84
2022/09/12 11:10:25;;;;;;;31.25;21.38;;;20.30;99.90;;;;;;5039954;28;20098;-84
2022/09/12 11:13:14;;;;;;;24.58;19.50;;;20.40;99.90;;;;;;5026928;28;20052;-84
2022/09/12 11:16:01;;;;;;;24.70;17.73;;;20.50;99.90;;;;;;5031258;28;20389;-84
2022/09/12 11:18:46;;;;;;;22.40;17.25;;;20.70;99.90;;;;;;5054944;28;20225;-84
2022/09/12 11:21:29;;;;;;;24.42;17.67;;;20.80;99.90;;;;;;5033232;28;20052;-84
2022/09/12 11:24:20;;;;;;;20.52;15.20;;;20.80;99.90;;;;;;5044493;28;20045;-84
2022/09/12 11:27:16;;;;;;;22.85;16.33;;;20.90;99.90;;;;;;5058040;28;20040;-84
2022/09/12 11:30:00;;;;;;;22.45;17.00;;;21.00;99.90;;;;;;5057284;28;20048;-84
2022/09/12 11:32:40;;;;;;;23.80;17.80;;;21.00;99.90;;;;;;5067404;28;20119;-84
2022/09/12 11:35:29;;;;;;;24.05;18.15;;;21.10;99.90;;;;;;5073417;28;20461;-84
2022/09/12 11:38:20;;;;;;;23.20;17.15;;;21.20;99.90;;;;;;5048673;28;20080;-84
2022/09/12 11:40:54;;;;;;;22.75;15.95;;;21.30;99.90;;;;;;5046624;28;20033;-84
2022/09/12 11:43:38;;;;;;;28.98;20.48;;;21.30;99.90;;;;;;5041553;28;20037;-84
2022/09/12 11:46:18;;;;;;;27.65;18.98;;;21.40;99.90;;;;;;5056991;28;20126;-84
2022/09/12 11:48:52;;;;;;;26.38;20.65;;;21.50;99.90;;;;;;5042676;28;20062;-84
2022/09/12 11:51:23;;;;;;;23.35;18.63;;;21.50;99.90;;;;;;5060436;28;20039;-84
2022/09/12 11:54:14;;;;;;;22.55;16.95;;;21.50;99.90;;;;;;5048597;28;20036;-82
2022/09/12 11:56:45;;;;;;;24.65;17.13;;;21.50;99.90;;;;;;5050208;28;20048;-84
2022/09/12 11:59:42;;;;;;;20.48;16.63;;;21.50;99.90;;;;;;5074329;28;20048;-83
2022/09/12 12:02:30;;;;;;;24.38;18.88;;;21.50;99.90;;;;;;5054957;28;20032;-83
2022/09/12 12:05:23;;;;;;;21.05;16.27;;;21.60;99.90;;;;;;5048053;28;20036;-83
2022/09/12 12:07:54;;;;;;;23.48;17.15;;;21.60;99.90;;;;;;5055343;28;20098;-83
2022/09/12 12:10:26;;;;;;;23.52;18.48;;;21.60;99.90;;;;;;5059787;28;20037;-83
2022/09/12 12:12:54;;;;;;;22.48;17.15;;;21.60;99.90;;;;;;5054344;28;20063;-84
2022/09/12 12:15:22;;;;;;;22.25;17.58;;;21.60;99.90;;;;;;5047552;28;20128;-84
2022/09/12 12:18:14;;;;;;;20.02;17.15;;;21.60;99.90;;;;;;5046697;28;20044;-83
2022/09/12 12:20:39;;;;;;;20.80;17.10;;;21.70;99.90;;;;;;5056556;28;20051;-83
2022/09/12 12:23:05;;;;;;;21.10;16.05;;;21.70;99.90;;;;;;5024655;28;20052;-84
2022/09/12 12:25:48;;;;;;;23.27;16.15;;;21.80;99.90;;;;;;5043013;28;20419;-84
2022/09/12 12:28:37;;;;;;;22.85;16.90;;;21.80;99.90;;;;;;5031178;28;20041;-84
2022/09/12 12:31:04;;;;;;;20.85;14.52;;;21.90;99.90;;;;;;5052173;28;20496;-84
2022/09/12 12:33:29;;;;;;;18.20;15.77;;;21.90;99.90;;;;;;5023024;28;20068;-83
2022/09/12 12:35:58;;;;;;;19.95;15.15;;;22.00;99.90;;;;;;5045968;28;20068;-84
2022/09/12 12:38:30;;;;;;;18.92;15.65;;;22.00;99.90;;;;;;5052423;28;20041;-84
2022/09/12 12:41:27;;;;;;;17.63;13.32;;;22.10;99.90;;;;;;5047915;28;20114;-84
2022/09/12 12:43:55;;;;;;;21.48;15.90;;;22.30;99.90;;;;;;5017324;28;20056;-83
2022/09/12 12:46:27;;;;;;;18.75;14.70;;;22.30;99.90;;;;;;5043154;28;20040;-83
2022/09/12 12:49:08;;;;;;;17.30;13.65;;;22.40;99.90;;;;;;5054941;28;20037;-84
2022/09/12 12:51:54;;;;;;;16.30;13.43;;;22.50;99.90;;;;;;5075297;28;20048;-83
2022/09/12 12:54:28;;;;;;;19.00;14.30;;;22.50;99.90;;;;;;5042164;28;20045;-84
2022/09/12 12:57:03;;;;;;;19.13;14.75;;;22.60;99.90;;;;;;5052050;28;20058;-84
2022/09/12 12:59:29;;;;;;;16.23;14.05;;;22.70;99.90;;;;;;5059606;28;20036;-83